sensor_id;sensor_type;location;lat;lon;timestamp;pressure;altitude;pressure_sealevel;temperature;humidity
70684;BME280;58263;48.146;11.440;2023-04-23T00:01:12;95099.31;;;15.47;52.41
70684;BME280;58263;48.146;11.440;2023-04-23T00:03:40;95101.78;;;15.44;52.63
70684;BME280;58263;48.146;11.440;2023-04-23T00:06:07;95105.34;;;15.34;52.71
70684;BME280;58263;48.146;11.440;2023-04-23T00:08:34;95105.88;;;15.36;52.71
70684;BME280;58263;48.146;11.440;2023-04-23T00:11:00;95099.38;;;15.37;52.24
70684;BME280;58263;48.146;11.440;2023-04-23T00:13:26;95093.72;;;15.33;52.71
70684;BME280;58263;48.146;11.440;2023-04-23T00:15:52;95089.69;;;15.31;53.88
70684;BME280;58263;48.146;11.440;2023-04-23T00:18:17;95086.97;;;15.31;54.17
70684;BME280;58263;48.146;11.440;2023-04-23T00:20:43;95084.84;;;15.28;53.59
70684;BME280;58263;48.146;11.440;2023-04-23T00:23:08;95085.41;;;15.19;53.94
70684;BME280;58263;48.146;11.440;2023-04-23T00:25:34;95082.97;;;15.18;53.97
70684;BME280;58263;48.146;11.440;2023-04-23T00:27:59;95076.22;;;15.15;54.23
70684;BME280;58263;48.146;11.440;2023-04-23T00:30:25;95077.31;;;15.19;53.73
70684;BME280;58263;48.146;11.440;2023-04-23T00:32:50;95068.69;;;15.17;54.19
70684;BME280;58263;48.146;11.440;2023-04-23T00:35:16;95069.50;;;15.13;54.72
70684;BME280;58263;48.146;11.440;2023-04-23T00:37:42;95069.78;;;15.11;55.05
70684;BME280;58263;48.146;11.440;2023-04-23T00:40:08;95064.94;;;15.08;55.57
70684;BME280;58263;48.146;11.440;2023-04-23T00:42:34;95066.78;;;15.13;56.43
70684;BME280;58263;48.146;11.440;2023-04-23T00:45:00;95057.63;;;15.03;56.65
70684;BME280;58263;48.146;11.440;2023-04-23T00:47:27;95061.69;;;15.01;57.04
70684;BME280;58263;48.146;11.440;2023-04-23T00:49:53;95060.63;;;15.02;56.68
70684;BME280;58263;48.146;11.440;2023-04-23T00:52:19;95060.63;;;15.02;56.37
70684;BME280;58263;48.146;11.440;2023-04-23T00:54:45;95060.91;;;14.95;56.41
70684;BME280;58263;48.146;11.440;2023-04-23T00:57:10;95057.41;;;14.95;56.06
70684;BME280;58263;48.146;11.440;2023-04-23T00:59:36;95056.31;;;14.96;55.46
70684;BME280;58263;48.146;11.440;2023-04-23T01:02:01;95062.53;;;14.96;55.63
70684;BME280;58263;48.146;11.440;2023-04-23T01:04:27;95062.81;;;14.84;55.73
70684;BME280;58263;48.146;11.440;2023-04-23T01:06:55;95060.38;;;14.88;55.57
70684;BME280;58263;48.146;11.440;2023-04-23T01:09:21;95064.44;;;14.80;55.99
70684;BME280;58263;48.146;11.440;2023-04-23T01:11:47;95050.94;;;14.85;56.42
70684;BME280;58263;48.146;11.440;2023-04-23T01:14:15;95055.84;;;14.78;57.07
70684;BME280;58263;48.146;11.440;2023-04-23T01:16:40;95049.09;;;14.81;56.65
70684;BME280;58263;48.146;11.440;2023-04-23T01:19:07;95049.59;;;14.78;56.28
70684;BME280;58263;48.146;11.440;2023-04-23T01:21:35;95052.06;;;14.69;56.43
70684;BME280;58263;48.146;11.440;2023-04-23T01:24:04;95057.75;;;14.73;56.23
70684;BME280;58263;48.146;11.440;2023-04-23T01:26:30;95055.03;;;14.73;56.13
70684;BME280;58263;48.146;11.440;2023-04-23T01:28:56;95046.66;;;14.74;57.21
70684;BME280;58263;48.146;11.440;2023-04-23T01:31:22;95049.66;;;14.67;58.18
70684;BME280;58263;48.146;11.440;2023-04-23T01:33:49;95042.88;;;14.60;57.80
70684;BME280;58263;48.146;11.440;2023-04-23T01:36:15;95047.47;;;14.59;58.32
70684;BME280;58263;48.146;11.440;2023-04-23T01:38:40;95053.16;;;14.52;58.53
70684;BME280;58263;48.146;11.440;2023-04-23T01:41:06;95056.94;;;14.51;58.64
70684;BME280;58263;48.146;11.440;2023-04-23T01:43:32;95050.72;;;14.51;59.21
70684;BME280;58263;48.146;11.440;2023-04-23T01:45:57;95044.00;;;14.53;59.69
70684;BME280;58263;48.146;11.440;2023-04-23T01:48:24;95046.41;;;14.55;59.72
70684;BME280;58263;48.146;11.440;2023-04-23T01:50:50;95055.84;;;14.52;59.67
70684;BME280;58263;48.146;11.440;2023-04-23T01:53:16;95051.81;;;14.45;60.86
70684;BME280;58263;48.146;11.440;2023-04-23T01:55:42;95054.78;;;14.43;60.61
70684;BME280;58263;48.146;11.440;2023-04-23T01:58:09;95053.19;;;14.37;60.41
70684;BME280;58263;48.146;11.440;2023-04-23T02:00:34;95053.72;;;14.39;60.77
70684;BME280;58263;48.146;11.440;2023-04-23T02:03:01;95059.66;;;14.36;60.99
70684;BME280;58263;48.146;11.440;2023-04-23T02:05:27;95059.66;;;14.36;61.68
70684;BME280;58263;48.146;11.440;2023-04-23T02:07:53;95065.84;;;14.31;61.43
70684;BME280;58263;48.146;11.440;2023-04-23T02:10:18;95064.22;;;14.35;61.58
70684;BME280;58263;48.146;11.440;2023-04-23T02:12:45;95070.16;;;14.32;61.95
70684;BME280;58263;48.146;11.440;2023-04-23T02:15:11;95069.88;;;14.29;61.32
70684;BME280;58263;48.146;11.440;2023-04-23T02:17:36;95077.19;;;14.33;60.78
70684;BME280;58263;48.146;11.440;2023-04-23T02:20:05;95070.16;;;14.27;60.14
70684;BME280;58263;48.146;11.440;2023-04-23T02:22:31;95072.06;;;14.32;59.42
70684;BME280;58263;48.146;11.440;2023-04-23T02:24:56;95068.81;;;14.35;59.71
70684;BME280;58263;48.146;11.440;2023-04-23T02:27:22;95071.78;;;14.33;60.01
70684;BME280;58263;48.146;11.440;2023-04-23T02:29:48;95072.59;;;14.34;59.95
70684;BME280;58263;48.146;11.440;2023-04-23T02:32:14;95067.75;;;14.31;59.80
70684;BME280;58263;48.146;11.440;2023-04-23T02:34:39;95069.09;;;14.33;59.58
70684;BME280;58263;48.146;11.440;2023-04-23T02:37:04;95074.78;;;14.32;59.87
70684;BME280;58263;48.146;11.440;2023-04-23T02:39:30;95074.22;;;14.30;60.15
70684;BME280;58263;48.146;11.440;2023-04-23T02:41:56;95075.03;;;14.25;60.29
70684;BME280;58263;48.146;11.440;2023-04-23T02:44:22;95073.69;;;14.23;61.13
70684;BME280;58263;48.146;11.440;2023-04-23T02:46:48;95075.59;;;14.22;61.56
70684;BME280;58263;48.146;11.440;2023-04-23T02:49:14;95070.47;;;14.15;61.58
70684;BME280;58263;48.146;11.440;2023-04-23T02:51:40;95084.22;;;14.14;61.51
70684;BME280;58263;48.146;11.440;2023-04-23T02:54:05;95082.03;;;14.16;60.93
70684;BME280;58263;48.146;11.440;2023-04-23T02:56:31;95078.00;;;14.13;60.83
70684;BME280;58263;48.146;11.440;2023-04-23T02:58:56;95073.16;;;14.10;61.22
70684;BME280;58263;48.146;11.440;2023-04-23T03:01:21;95078.81;;;14.09;61.45
70684;BME280;58263;48.146;11.440;2023-04-23T03:03:47;95073.13;;;14.05;61.83
70684;BME280;58263;48.146;11.440;2023-04-23T03:06:12;95076.94;;;13.99;61.79
70684;BME280;58263;48.146;11.440;2023-04-23T03:08:38;95081.50;;;13.98;62.19
70684;BME280;58263;48.146;11.440;2023-04-23T03:11:03;95078.25;;;13.91;62.05
70684;BME280;58263;48.146;11.440;2023-04-23T03:13:28;95075.84;;;13.95;62.26
70684;BME280;58263;48.146;11.440;2023-04-23T03:15:54;95075.31;;;13.98;61.68
70684;BME280;58263;48.146;11.440;2023-04-23T03:18:20;95075.81;;;14.00;61.18
70684;BME280;58263;48.146;11.440;2023-04-23T03:20:45;95075.31;;;13.98;61.72
70684;BME280;58263;48.146;11.440;2023-04-23T03:23:11;95077.19;;;14.02;61.18
70684;BME280;58263;48.146;11.440;2023-04-23T03:25:36;95083.13;;;13.99;61.54
70684;BME280;58263;48.146;11.440;2023-04-23T03:28:02;95084.19;;;14.03;61.34
70684;BME280;58263;48.146;11.440;2023-04-23T03:30:28;95080.69;;;13.98;61.47
70684;BME280;58263;48.146;11.440;2023-04-23T03:32:55;95087.16;;;14.02;61.82
70684;BME280;58263;48.146;11.440;2023-04-23T03:35:24;95086.88;;;13.98;61.90
70684;BME280;58263;48.146;11.440;2023-04-23T03:37:50;95087.72;;;13.99;61.54
70684;BME280;58263;48.146;11.440;2023-04-23T03:40:16;95082.31;;;13.99;62.05
70684;BME280;58263;48.146;11.440;2023-04-23T03:42:41;95089.31;;;14.00;61.38
70684;BME280;58263;48.146;11.440;2023-04-23T03:45:07;95087.72;;;13.99;61.61
70684;BME280;58263;48.146;11.440;2023-04-23T03:47:33;95093.38;;;13.92;61.88
70684;BME280;58263;48.146;11.440;2023-04-23T03:49:58;95095.78;;;13.94;61.64
70684;BME280;58263;48.146;11.440;2023-04-23T03:52:23;95094.16;;;13.93;62.40
70684;BME280;58263;48.146;11.440;2023-04-23T03:54:49;95104.41;;;13.91;62.38
70684;BME280;58263;48.146;11.440;2023-04-23T03:57:14;95102.25;;;13.93;62.80
70684;BME280;58263;48.146;11.440;2023-04-23T03:59:40;95110.88;;;13.90;62.86
70684;BME280;58263;48.146;11.440;2023-04-23T04:02:05;95111.38;;;13.76;62.79
70684;BME280;58263;48.146;11.440;2023-04-23T04:04:31;95118.69;;;13.91;62.68
70684;BME280;58263;48.146;11.440;2023-04-23T04:06:57;95123.53;;;13.84;63.04
70684;BME280;58263;48.146;11.440;2023-04-23T04:09:24;95128.59;;;13.70;63.27
70684;BME280;58263;48.146;11.440;2023-04-23T04:11:50;95126.44;;;13.67;64.16
70684;BME280;58263;48.146;11.440;2023-04-23T04:14:15;95121.34;;;13.71;65.45
70684;BME280;58263;48.146;11.440;2023-04-23T04:16:41;95128.56;;;13.55;66.26
70684;BME280;58263;48.146;11.440;2023-04-23T04:19:06;95135.56;;;13.50;68.04
70684;BME280;58263;48.146;11.440;2023-04-23T04:21:31;95137.66;;;13.38;69.21
70684;BME280;58263;48.146;11.440;2023-04-23T04:23:58;95134.91;;;13.33;69.91
70684;BME280;58263;48.146;11.440;2023-04-23T04:26:26;95140.31;;;13.33;69.79
70684;BME280;58263;48.146;11.440;2023-04-23T04:28:51;95140.84;;;13.30;71.17
70684;BME280;58263;48.146;11.440;2023-04-23T04:31:17;95143.50;;;13.25;72.23
70684;BME280;58263;48.146;11.440;2023-04-23T04:33:44;95144.84;;;13.22;71.60
70684;BME280;58263;48.146;11.440;2023-04-23T04:36:10;95135.94;;;13.16;72.62
70684;BME280;58263;48.146;11.440;2023-04-23T04:38:37;95138.59;;;13.06;72.97
70684;BME280;58263;48.146;11.440;2023-04-23T04:41:03;95140.44;;;13.06;73.21
70684;BME280;58263;48.146;11.440;2023-04-23T04:43:32;95144.81;;;13.12;73.25
70684;BME280;58263;48.146;11.440;2023-04-23T04:45:58;95143.97;;;13.06;73.89
70684;BME280;58263;48.146;11.440;2023-04-23T04:48:24;95140.75;;;13.09;74.61
70684;BME280;58263;48.146;11.440;2023-04-23T04:50:49;95145.53;;;12.97;74.42
70684;BME280;58263;48.146;11.440;2023-04-23T04:53:15;95138.50;;;12.96;74.59
70684;BME280;58263;48.146;11.440;2023-04-23T04:55:40;95154.94;;;12.94;74.50
70684;BME280;58263;48.146;11.440;2023-04-23T04:58:06;95153.81;;;12.90;75.30
70684;BME280;58263;48.146;11.440;2023-04-23T05:00:31;95162.66;;;12.85;75.02
70684;BME280;58263;48.146;11.440;2023-04-23T05:02:57;95162.59;;;12.75;75.79
70684;BME280;58263;48.146;11.440;2023-04-23T05:05:24;95163.41;;;12.76;76.20
70684;BME280;58263;48.146;11.440;2023-04-23T05:07:50;95173.16;;;12.82;75.30
70684;BME280;58263;48.146;11.440;2023-04-23T05:10:16;95178.28;;;12.83;75.93
70684;BME280;58263;48.146;11.440;2023-04-23T05:12:41;95176.47;;;12.94;75.63
70684;BME280;58263;48.146;11.440;2023-04-23T05:15:08;95177.47;;;12.83;75.03
70684;BME280;58263;48.146;11.440;2023-04-23T05:17:35;95180.59;;;12.70;75.69
70684;BME280;58263;48.146;11.440;2023-04-23T05:20:01;95181.72;;;12.74;75.86
70684;BME280;58263;48.146;11.440;2023-04-23T05:22:27;95186.81;;;12.75;75.80
70684;BME280;58263;48.146;11.440;2023-04-23T05:24:52;95188.47;;;12.81;75.80
70684;BME280;58263;48.146;11.440;2023-04-23T05:27:17;95187.59;;;12.71;76.15
70684;BME280;58263;48.146;11.440;2023-04-23T05:29:43;95186.88;;;12.80;76.01
70684;BME280;58263;48.146;11.440;2023-04-23T05:32:09;95193.84;;;12.76;76.33
70684;BME280;58263;48.146;11.440;2023-04-23T05:34:34;95198.06;;;12.67;77.13
70684;BME280;58263;48.146;11.440;2023-04-23T05:37:00;95198.97;;;12.78;76.57
70684;BME280;58263;48.146;11.440;2023-04-23T05:39:26;95196.47;;;12.71;76.57
70684;BME280;58263;48.146;11.440;2023-04-23T05:41:51;95201.59;;;12.73;76.65
70684;BME280;58263;48.146;11.440;2023-04-23T05:44:17;95196.69;;;12.64;76.57
70684;BME280;58263;48.146;11.440;2023-04-23T05:46:42;95203.34;;;12.57;77.55
70684;BME280;58263;48.146;11.440;2023-04-23T05:49:07;95199.19;;;12.71;77.64
70684;BME280;58263;48.146;11.440;2023-04-23T05:51:33;95194.06;;;12.75;77.93
70684;BME280;58263;48.146;11.440;2023-04-23T05:53:58;95196.44;;;12.66;78.32
70684;BME280;58263;48.146;11.440;2023-04-23T05:56:23;95201.50;;;12.62;78.21
70684;BME280;58263;48.146;11.440;2023-04-23T05:58:49;95212.41;;;12.45;78.90
70684;BME280;58263;48.146;11.440;2023-04-23T06:01:14;95205.19;;;12.51;78.88
70684;BME280;58263;48.146;11.440;2023-04-23T06:03:39;95196.31;;;12.50;78.83
70684;BME280;58263;48.146;11.440;2023-04-23T06:06:09;95195.75;;;12.48;78.75
70684;BME280;58263;48.146;11.440;2023-04-23T06:08:34;95199.50;;;12.47;79.28
70684;BME280;58263;48.146;11.440;2023-04-23T06:11:00;95196.53;;;12.44;79.88
70684;BME280;58263;48.146;11.440;2023-04-23T06:13:26;95204.28;;;12.40;79.96
70684;BME280;58263;48.146;11.440;2023-04-23T06:15:52;95202.16;;;12.42;80.24
70684;BME280;58263;48.146;11.440;2023-04-23T06:18:17;95212.16;;;12.47;80.38
70684;BME280;58263;48.146;11.440;2023-04-23T06:20:43;95218.06;;;12.44;81.11
70684;BME280;58263;48.146;11.440;2023-04-23T06:23:11;95213.56;;;12.55;79.91
70684;BME280;58263;48.146;11.440;2023-04-23T06:25:36;95219.22;;;12.53;79.89
70684;BME280;58263;48.146;11.440;2023-04-23T06:28:01;95222.75;;;12.59;80.31
70684;BME280;58263;48.146;11.440;2023-04-23T06:30:27;95221.91;;;12.53;79.94
70684;BME280;58263;48.146;11.440;2023-04-23T06:32:52;95218.09;;;12.49;80.23
70684;BME280;58263;48.146;11.440;2023-04-23T06:35:17;95218.91;;;12.49;80.39
70684;BME280;58263;48.146;11.440;2023-04-23T06:37:43;95221.13;;;12.58;80.46
70684;BME280;58263;48.146;11.440;2023-04-23T06:40:08;95218.66;;;12.51;80.40
70684;BME280;58263;48.146;11.440;2023-04-23T06:42:34;95211.31;;;12.41;80.86
70684;BME280;58263;48.146;11.440;2023-04-23T06:44:59;95204.72;;;12.59;80.29
70684;BME280;58263;48.146;11.440;2023-04-23T06:47:28;95210.06;;;12.54;80.73
70684;BME280;58263;48.146;11.440;2023-04-23T06:49:53;95209.84;;;12.61;79.83
70684;BME280;58263;48.146;11.440;2023-04-23T06:52:18;95207.69;;;12.58;79.83
70684;BME280;58263;48.146;11.440;2023-04-23T06:54:44;95206.72;;;12.42;80.24
70684;BME280;58263;48.146;11.440;2023-04-23T06:57:09;95212.59;;;12.66;80.16
70684;BME280;58263;48.146;11.440;2023-04-23T06:59:35;95206.72;;;12.74;80.03
70684;BME280;58263;48.146;11.440;2023-04-23T07:02:00;95204.63;;;12.81;79.96
70684;BME280;58263;48.146;11.440;2023-04-23T07:04:25;95196.06;;;12.90;79.83
70684;BME280;58263;48.146;11.440;2023-04-23T07:06:51;95198.22;;;12.88;79.51
70684;BME280;58263;48.146;11.440;2023-04-23T07:09:16;95198.75;;;12.90;79.51
70684;BME280;58263;48.146;11.440;2023-04-23T07:11:41;95205.50;;;12.92;79.25
70684;BME280;58263;48.146;11.440;2023-04-23T07:14:07;95198.88;;;13.05;78.40
70684;BME280;58263;48.146;11.440;2023-04-23T07:16:33;95191.06;;;13.09;78.78
70684;BME280;58263;48.146;11.440;2023-04-23T07:18:59;95201.59;;;13.10;79.62
70684;BME280;58263;48.146;11.440;2023-04-23T07:21:26;95198.69;;;13.22;78.68
70684;BME280;58263;48.146;11.440;2023-04-23T07:23:52;95198.50;;;13.34;78.58
70684;BME280;58263;48.146;11.440;2023-04-23T07:26:17;95195.31;;;13.37;78.55
70684;BME280;58263;48.146;11.440;2023-04-23T07:28:43;95195.81;;;13.34;77.97
70684;BME280;58263;48.146;11.440;2023-04-23T07:31:08;95198.91;;;13.10;78.89
70684;BME280;58263;48.146;11.440;2023-04-23T07:33:34;95201.47;;;13.32;77.85
70684;BME280;58263;48.146;11.440;2023-04-23T07:35:59;95197.94;;;13.32;77.97
70684;BME280;58263;48.146;11.440;2023-04-23T07:38:25;95204.13;;;13.27;78.21
70684;BME280;58263;48.146;11.440;2023-04-23T07:40:50;95207.03;;;13.21;78.49
70684;BME280;58263;48.146;11.440;2023-04-23T07:43:15;95204.31;;;13.15;78.98
70684;BME280;58263;48.146;11.440;2023-04-23T07:45:41;95197.28;;;13.09;79.10
70684;BME280;58263;48.146;11.440;2023-04-23T07:48:06;95190.34;;;13.24;78.17
70684;BME280;58263;48.146;11.440;2023-04-23T07:50:31;95197.38;;;13.25;78.65
70684;BME280;58263;48.146;11.440;2023-04-23T07:52:57;95204.34;;;13.21;78.23
70684;BME280;58263;48.146;11.440;2023-04-23T07:55:22;95205.38;;;13.09;78.95
70684;BME280;58263;48.146;11.440;2023-04-23T07:57:47;95203.59;;;13.25;78.04
70684;BME280;58263;48.146;11.440;2023-04-23T08:00:13;95201.97;;;13.24;79.05
70684;BME280;58263;48.146;11.440;2023-04-23T08:02:39;95199.25;;;13.24;78.04
70684;BME280;58263;48.146;11.440;2023-04-23T08:05:04;95203.72;;;13.08;79.34
70684;BME280;58263;48.146;11.440;2023-04-23T08:07:30;95193.28;;;13.17;78.31
70684;BME280;58263;48.146;11.440;2023-04-23T08:09:56;95189.81;;;13.22;78.63
70684;BME280;58263;48.146;11.440;2023-04-23T08:12:27;95195.00;;;13.33;78.71
70684;BME280;58263;48.146;11.440;2023-04-23T08:14:52;95196.94;;;13.38;78.46
70684;BME280;58263;48.146;11.440;2023-04-23T08:17:17;95190.00;;;13.58;78.01
70684;BME280;58263;48.146;11.440;2023-04-23T08:19:43;95191.44;;;13.76;78.08
70684;BME280;58263;48.146;11.440;2023-04-23T08:22:08;95184.69;;;13.68;77.32
70684;BME280;58263;48.146;11.440;2023-04-23T08:24:34;95174.50;;;13.96;75.92
70684;BME280;58263;48.146;11.440;2023-04-23T08:27:00;95176.16;;;14.07;76.26
70684;BME280;58263;48.146;11.440;2023-04-23T08:29:25;95164.59;;;14.32;74.64
70684;BME280;58263;48.146;11.440;2023-04-23T08:31:51;95157.84;;;14.50;75.66
70684;BME280;58263;48.146;11.440;2023-04-23T08:34:16;95170.56;;;14.70;72.73
70684;BME280;58263;48.146;11.440;2023-04-23T08:36:42;95169.47;;;14.61;73.56
70684;BME280;58263;48.146;11.440;2023-04-23T08:39:07;95167.59;;;14.72;72.40
70684;BME280;58263;48.146;11.440;2023-04-23T08:41:38;95166.53;;;14.83;72.19
70684;BME280;58263;48.146;11.440;2023-04-23T08:44:17;95166.50;;;15.04;72.16
70684;BME280;58263;48.146;11.440;2023-04-23T08:46:44;95171.56;;;15.26;71.56
70684;BME280;58263;48.146;11.440;2023-04-23T08:49:14;95173.19;;;15.27;70.82
70684;BME280;58263;48.146;11.440;2023-04-23T08:51:52;95174.50;;;15.40;69.96
70684;BME280;58263;48.146;11.440;2023-04-23T08:54:21;95166.38;;;15.45;69.47
70684;BME280;58263;48.146;11.440;2023-04-23T08:56:48;95166.91;;;15.47;69.00
70684;BME280;58263;48.146;11.440;2023-04-23T08:59:15;95164.72;;;15.54;68.05
70684;BME280;58263;48.146;11.440;2023-04-23T09:01:42;95155.88;;;15.38;68.23
70684;BME280;58263;48.146;11.440;2023-04-23T09:04:08;95161.38;;;15.78;68.08
70684;BME280;58263;48.146;11.440;2023-04-23T09:06:35;95159.25;;;15.80;68.26
70684;BME280;58263;48.146;11.440;2023-04-23T09:09:00;95162.63;;;16.01;65.83
70684;BME280;58263;48.146;11.440;2023-04-23T09:11:26;95149.72;;;16.33;63.30
70684;BME280;58263;48.146;11.440;2023-04-23T09:13:55;95147.56;;;16.69;64.05
70684;BME280;58263;48.146;11.440;2023-04-23T09:16:21;95147.84;;;16.97;61.77
70684;BME280;58263;48.146;11.440;2023-04-23T09:18:46;95151.19;;;17.43;61.15
70684;BME280;58263;48.146;11.440;2023-04-23T09:21:12;95146.56;;;17.43;60.09
70684;BME280;58263;48.146;11.440;2023-04-23T09:23:38;95151.75;;;17.64;61.00
70684;BME280;58263;48.146;11.440;2023-04-23T09:26:05;95150.00;;;17.00;59.31
70684;BME280;58263;48.146;11.440;2023-04-23T09:28:35;95150.13;;;17.14;61.52
70684;BME280;58263;48.146;11.440;2023-04-23T09:31:00;95151.75;;;17.15;60.19
70684;BME280;58263;48.146;11.440;2023-04-23T09:33:27;95139.75;;;17.21;59.22
70684;BME280;58263;48.146;11.440;2023-04-23T09:35:52;95135.97;;;17.47;59.18
70684;BME280;58263;48.146;11.440;2023-04-23T09:38:18;95137.50;;;17.29;61.25
70684;BME280;58263;48.146;11.440;2023-04-23T09:40:44;95132.97;;;17.24;58.75
70684;BME280;58263;48.146;11.440;2023-04-23T09:43:10;95133.75;;;17.24;59.84
70684;BME280;58263;48.146;11.440;2023-04-23T09:45:35;95131.97;;;17.39;58.89
70684;BME280;58263;48.146;11.440;2023-04-23T09:48:00;95129.72;;;17.46;57.84
70684;BME280;58263;48.146;11.440;2023-04-23T09:50:39;95123.72;;;17.01;57.54
70684;BME280;58263;48.146;11.440;2023-04-23T09:53:06;95123.53;;;17.16;59.17
70684;BME280;58263;48.146;11.440;2023-04-23T09:55:33;95121.78;;;17.31;59.01
70684;BME280;58263;48.146;11.440;2023-04-23T09:58:09;95114.09;;;17.38;58.79
70684;BME280;58263;48.146;11.440;2023-04-23T10:00:36;95111.44;;;18.00;57.44
70684;BME280;58263;48.146;11.440;2023-04-23T10:03:04;95108.28;;;18.12;58.16
70684;BME280;58263;48.146;11.440;2023-04-23T10:05:30;95111.31;;;18.77;55.66
70684;BME280;58263;48.146;11.440;2023-04-23T10:07:56;95107.06;;;19.59;54.61
70684;BME280;58263;48.146;11.440;2023-04-23T10:10:22;95102.22;;;19.00;54.13
70684;BME280;58263;48.146;11.440;2023-04-23T10:12:47;95097.03;;;19.46;52.58
70684;BME280;58263;48.146;11.440;2023-04-23T10:15:15;95099.38;;;20.03;51.58
70684;BME280;58263;48.146;11.440;2023-04-23T10:17:41;95093.44;;;20.01;51.44
70684;BME280;58263;48.146;11.440;2023-04-23T10:20:08;95096.31;;;20.18;52.04
70684;BME280;58263;48.146;11.440;2023-04-23T10:22:34;95097.69;;;19.79;53.23
70684;BME280;58263;48.146;11.440;2023-04-23T10:25:08;95090.13;;;19.76;53.47
70684;BME280;58263;48.146;11.440;2023-04-23T10:27:38;95092.09;;;19.34;52.18
70684;BME280;58263;48.146;11.440;2023-04-23T10:30:07;95084.22;;;19.46;52.10
70684;BME280;58263;48.146;11.440;2023-04-23T10:32:33;95085.63;;;19.30;53.35
70684;BME280;58263;48.146;11.440;2023-04-23T10:34:59;95081.81;;;19.31;52.90
70684;BME280;58263;48.146;11.440;2023-04-23T10:37:24;95087.84;;;19.00;53.46
70684;BME280;58263;48.146;11.440;2023-04-23T10:39:54;95088.47;;;19.11;52.40
70684;BME280;58263;48.146;11.440;2023-04-23T10:42:20;95074.56;;;19.12;52.24
70684;BME280;58263;48.146;11.440;2023-04-23T10:44:46;95076.09;;;19.18;52.26
70684;BME280;58263;48.146;11.440;2023-04-23T10:47:14;95062.25;;;19.29;51.23
70684;BME280;58263;48.146;11.440;2023-04-23T10:49:40;95067.03;;;20.24;51.44
70684;BME280;58263;48.146;11.440;2023-04-23T10:52:09;95065.59;;;20.72;47.87
70684;BME280;58263;48.146;11.440;2023-04-23T10:54:35;95050.88;;;21.53;46.95
70684;BME280;58263;48.146;11.440;2023-04-23T10:57:05;95050.41;;;23.90;42.17
70684;BME280;58263;48.146;11.440;2023-04-23T10:59:37;95042.06;;;23.77;41.60
70684;BME280;58263;48.146;11.440;2023-04-23T11:02:09;95038.22;;;25.58;38.09
70684;BME280;58263;48.146;11.440;2023-04-23T11:04:40;95029.56;;;26.94;34.65
70684;BME280;58263;48.146;11.440;2023-04-23T11:07:07;95033.56;;;28.32;31.85
70684;BME280;58263;48.146;11.440;2023-04-23T11:11:59;95014.91;;;31.13;29.54
70684;BME280;58263;48.146;11.440;2023-04-23T11:17:11;95017.22;;;33.17;26.28
70684;BME280;58263;48.146;11.440;2023-04-23T11:19:37;95012.06;;;33.77;25.67
70684;BME280;58263;48.146;11.440;2023-04-23T11:22:11;95006.81;;;30.97;27.73
70684;BME280;58263;48.146;11.440;2023-04-23T11:24:37;95007.47;;;28.49;29.24
70684;BME280;58263;48.146;11.440;2023-04-23T11:27:11;95006.44;;;30.98;27.46
70684;BME280;58263;48.146;11.440;2023-04-23T11:29:38;94996.06;;;31.85;25.71
70684;BME280;58263;48.146;11.440;2023-04-23T11:32:04;94999.34;;;33.58;24.99
70684;BME280;58263;48.146;11.440;2023-04-23T11:34:41;94993.38;;;31.99;24.99
70684;BME280;58263;48.146;11.440;2023-04-23T11:37:11;94991.28;;;30.17;28.00
70684;BME280;58263;48.146;11.440;2023-04-23T11:39:38;94992.53;;;29.16;29.16
70684;BME280;58263;48.146;11.440;2023-04-23T11:42:11;94980.50;;;31.17;26.14
70684;BME280;58263;48.146;11.440;2023-04-23T11:44:38;94973.91;;;34.88;22.56
70684;BME280;58263;48.146;11.440;2023-04-23T11:47:06;94977.97;;;35.36;21.61
70684;BME280;58263;48.146;11.440;2023-04-23T11:49:32;94964.94;;;36.71;20.91
70684;BME280;58263;48.146;11.440;2023-04-23T11:51:58;94959.25;;;34.69;22.48
70684;BME280;58263;48.146;11.440;2023-04-23T11:54:26;94964.75;;;33.81;22.52
70684;BME280;58263;48.146;11.440;2023-04-23T11:56:52;94958.38;;;33.98;21.86
70684;BME280;58263;48.146;11.440;2023-04-23T11:59:18;94948.91;;;33.56;20.98
70684;BME280;58263;48.146;11.440;2023-04-23T12:01:48;94950.50;;;33.07;23.69
70684;BME280;58263;48.146;11.440;2023-04-23T12:04:20;94938.97;;;33.12;23.48
70684;BME280;58263;48.146;11.440;2023-04-23T12:06:47;94932.94;;;32.66;23.46
70684;BME280;58263;48.146;11.440;2023-04-23T12:09:14;94928.41;;;32.08;23.20
70684;BME280;58263;48.146;11.440;2023-04-23T12:11:41;94940.97;;;33.04;23.43
70684;BME280;58263;48.146;11.440;2023-04-23T12:14:08;94926.13;;;34.12;21.19
70684;BME280;58263;48.146;11.440;2023-04-23T12:19:06;94915.81;;;34.01;21.84
70684;BME280;58263;48.146;11.440;2023-04-23T12:21:31;94920.56;;;34.04;22.79
70684;BME280;58263;48.146;11.440;2023-04-23T12:23:57;94918.44;;;35.92;20.29
70684;BME280;58263;48.146;11.440;2023-04-23T12:26:24;94918.66;;;36.97;19.68
70684;BME280;58263;48.146;11.440;2023-04-23T12:28:51;94914.53;;;37.77;17.88
70684;BME280;58263;48.146;11.440;2023-04-23T12:31:24;94909.97;;;36.92;18.31
70684;BME280;58263;48.146;11.440;2023-04-23T12:34:07;94897.81;;;37.49;18.72
70684;BME280;58263;48.146;11.440;2023-04-23T12:36:34;94893.06;;;37.90;17.89
70684;BME280;58263;48.146;11.440;2023-04-23T12:41:44;94888.22;;;38.51;17.68
70684;BME280;58263;48.146;11.440;2023-04-23T12:44:10;94885.88;;;38.09;17.62
70684;BME280;58263;48.146;11.440;2023-04-23T12:46:36;94878.50;;;35.15;20.32
70684;BME280;58263;48.146;11.440;2023-04-23T12:49:01;94882.59;;;33.11;22.77
70684;BME280;58263;48.146;11.440;2023-04-23T12:51:26;94873.53;;;31.68;24.29
70684;BME280;58263;48.146;11.440;2023-04-23T12:53:52;94876.59;;;30.45;25.10
70684;BME280;58263;48.146;11.440;2023-04-23T12:56:17;94878.28;;;29.85;25.66